Fontana, Wisconsin
Current Conditions -  °F | °C
As of 11:15 AM on Friday 31 Oct 2014 (Local Time) from KBUU Reporting Station
Overcast Overcast  
Wind Chill: 23°   Ceiling: 3900
Heat Index: 35°   Visibility: 10mi
Dew Point: 22°   Wind: 23mph
Humidity: 59%   Direction: 340°NNW
Pressure: 30.22"   Gusts: 33mph
Location:  42.55°N, 88.57°W
Report Text: KBUU 311615Z AUTO 34020G29KT 10SM OVC039 02/M06 A3022 RMK AO2 T00151057
Loading
Personal Weather Stations






























Interactive Weather Map
Tropical Storm Tracking
New forecast layout! Learn more

10-Day Weather Forecast

Advertisements
Track Severe Weather on mobile